Time;durP1;ratioP1;P1;durP2;ratioP2;P2;SDS_P1;SDS_P2;PMS_P1;PMS_P2;Temp;Humidity;BMP_temperature;BMP_pressure;BME280_temperature;BME280_humidity;BME280_pressure;Samples;Min_cycle;Max_cycle;Signal;HPM_P1;HPM_P2
2021/01/02 00:31:18;;;;;;;25.23;15.85;;;;;;;;;;849872;22;20492;-96
2021/01/02 00:51:54;;;;;;;27.92;16.40;;;;;;;;;;4940146;29;20275;-96
2021/01/02 00:54:29;;;;;;;27.75;16.45;;;;;;;;;;4940332;29;20230;-95
2021/01/02 03:22:54;;;;;;;25.90;15.30;;;;;;;;;;5331697;23;20242;-96
2021/01/02 03:25:21;;;;;;;21.88;14.00;;;;;;;;;;5066557;28;20250;-96
2021/01/02 03:27:51;;;;;;;23.42;15.52;;;;;;;;;;5067005;28;20290;-95
2021/01/02 03:30:18;;;;;;;18.05;11.07;;;;;;;;;;5050045;28;20248;-96
2021/01/02 03:32:44;;;;;;;25.10;13.80;;;;;;;;;;5064822;28;20203;-95
2021/01/02 03:35:13;;;;;;;19.23;12.90;;;;;;;;;;5067804;28;20196;-94
2021/01/02 03:37:40;;;;;;;19.92;11.93;;;;;;;;;;5048302;28;20215;-95
2021/01/02 03:40:09;;;;;;;25.20;15.20;;;;;;;;;;5059139;28;20233;-96
2021/01/02 03:42:36;;;;;;;24.40;12.95;;;;;;;;;;5044473;28;20268;-96
2021/01/02 03:45:02;;;;;;;20.77;13.52;;;;;;;;;;5056374;28;20203;-96
2021/01/02 03:47:28;;;;;;;28.80;16.08;;;;;;;;;;5063131;28;20203;-95
2021/01/02 03:49:55;;;;;;;29.35;15.77;;;;;;;;;;5062207;28;20223;-96
2021/01/02 03:52:21;;;;;;;27.80;16.65;;;;;;;;;;5063827;28;20199;-96
2021/01/02 03:54:49;;;;;;;28.35;16.02;;;;;;;;;;5062908;28;20280;-96
2021/01/02 03:57:16;;;;;;;26.77;16.20;;;;;;;;;;5063991;28;20263;-96
2021/01/02 04:02:29;;;;;;;31.88;16.48;;;;;;;;;;5064984;28;20215;-96
2021/01/02 04:04:55;;;;;;;31.42;18.08;;;;;;;;;;5048777;28;20199;-96
2021/01/02 04:07:23;;;;;;;40.38;19.75;;;;;;;;;;5063080;28;20259;-96
2021/01/02 04:10:02;;;;;;;38.40;19.13;;;;;;;;;;5073935;28;20188;-96
2021/01/02 04:12:51;;;;;;;34.72;18.40;;;;;;;;;;5072569;28;20222;-96
2021/01/02 04:21:17;;;;;;;38.88;20.80;;;;;;;;;;5152639;23;20288;-96
2021/01/02 04:32:53;;;;;;;34.17;20.33;;;;;;;;;;4968590;28;20199;-96
2021/01/02 04:35:22;;;;;;;38.20;21.35;;;;;;;;;;4955849;28;20215;-96
2021/01/02 04:37:51;;;;;;;36.22;21.08;;;;;;;;;;4951768;29;20219;-96
2021/01/02 04:40:22;;;;;;;45.47;23.55;;;;;;;;;;4945936;29;20234;-96
2021/01/02 04:42:57;;;;;;;46.97;22.85;;;;;;;;;;4945728;29;20202;-96
2021/01/02 04:54:02;;;;;;;41.08;23.65;;;;;;;;;;5030781;28;20221;-95
2021/01/02 04:57:04;;;;;;;42.35;22.88;;;;;;;;;;5034788;28;20196;-96
2021/01/02 04:59:48;;;;;;;38.70;21.52;;;;;;;;;;5048913;28;20230;-96
2021/01/02 06:08:41;;;;;;;106.80;35.95;;;;;;;;;;5022664;28;20240;-95
2021/01/02 06:11:09;;;;;;;101.43;35.60;;;;;;;;;;5025977;28;20201;-95
2021/01/02 06:13:36;;;;;;;85.35;30.70;;;;;;;;;;5023572;28;20665;-95
2021/01/02 06:16:04;;;;;;;98.43;36.85;;;;;;;;;;5025817;28;20204;-96
2021/01/02 06:18:32;;;;;;;73.68;35.47;;;;;;;;;;5025432;28;20629;-96
2021/01/02 06:21:11;;;;;;;87.43;40.17;;;;;;;;;;5026336;28;20351;-96
2021/01/02 06:29:51;;;;;;;226.75;49.75;;;;;;;;;;4902275;29;20316;-96
2021/01/02 06:35:37;;;;;;;140.05;42.17;;;;;;;;;;4949352;29;20250;-96
2021/01/02 06:38:06;;;;;;;125.97;42.67;;;;;;;;;;4944931;29;20203;-95
2021/01/02 06:40:37;;;;;;;144.35;45.65;;;;;;;;;;4970141;28;20216;-95
2021/01/02 06:43:04;;;;;;;137.88;48.00;;;;;;;;;;4982138;28;20199;-95
2021/01/02 06:45:50;;;;;;;153.90;48.03;;;;;;;;;;4984810;28;20214;-94
2021/01/02 06:48:46;;;;;;;170.77;55.53;;;;;;;;;;4987523;28;20230;-96
2021/01/02 06:51:56;;;;;;;144.90;45.75;;;;;;;;;;4944523;28;20202;-96
2021/01/02 06:54:25;;;;;;;145.57;43.17;;;;;;;;;;4979129;28;20251;-96
2021/01/02 06:57:21;;;;;;;121.05;41.67;;;;;;;;;;4971187;28;20211;-96
2021/01/02 06:59:53;;;;;;;123.82;37.95;;;;;;;;;;4989561;28;20206;-96
2021/01/02 07:02:36;;;;;;;122.35;36.17;;;;;;;;;;4995210;28;20206;-96
2021/01/02 07:05:05;;;;;;;118.20;39.55;;;;;;;;;;4991871;28;20253;-96
2021/01/02 07:07:47;;;;;;;102.82;33.72;;;;;;;;;;4977818;28;20203;-96
2021/01/02 07:16:28;;;;;;;122.43;41.00;;;;;;;;;;4992676;28;20213;-96
2021/01/02 07:19:00;;;;;;;105.57;44.33;;;;;;;;;;4993003;28;20190;-96
2021/01/02 07:25:05;;;;;;;;;;;;;;;;;;;;;
2021/01/02 07:30:47;;;;;;;246.85;79.53;;;;;;;;;;4969449;28;20218;-96
2021/01/02 07:34:07;;;;;;;419.95;115.85;;;;;;;;;;4974706;28;20203;-96
2021/01/02 07:39:13;;;;;;;428.35;116.93;;;;;;;;;;5361022;23;20238;-96
2021/01/02 07:44:28;;;;;;;323.25;111.28;;;;;;;;;;5049798;23;20228;-96
2021/01/02 07:46:57;;;;;;;363.13;101.35;;;;;;;;;;5017294;28;20207;-96
2021/01/02 07:49:23;;;;;;;404.92;98.82;;;;;;;;;;5045315;28;20224;-96
2021/01/02 07:51:50;;;;;;;252.82;83.68;;;;;;;;;;5028977;28;20215;-96
2021/01/02 07:54:36;;;;;;;266.70;89.72;;;;;;;;;;5046958;28;20230;-96
2021/01/02 07:57:03;;;;;;;274.90;102.03;;;;;;;;;;5034559;28;20212;-96
2021/01/02 07:59:30;;;;;;;331.98;100.68;;;;;;;;;;5043162;28;20210;-96
2021/01/02 08:01:58;;;;;;;341.45;95.38;;;;;;;;;;5052333;28;20184;-96
2021/01/02 08:04:25;;;;;;;259.95;78.75;;;;;;;;;;5051935;28;20196;-96
2021/01/02 08:06:58;;;;;;;386.70;78.97;;;;;;;;;;5056923;28;20195;-96
2021/01/02 08:43:32;;;;;;;278.27;69.35;;;;;;;;;;5062107;28;20246;-96
2021/01/02 08:46:07;;;;;;;336.02;71.45;;;;;;;;;;5054302;28;20683;-96
2021/01/02 08:48:44;;;;;;;277.65;67.35;;;;;;;;;;5049243;28;20228;-96
2021/01/02 08:51:20;;;;;;;216.50;63.70;;;;;;;;;;5061389;28;20206;-96
2021/01/02 08:53:47;;;;;;;244.02;64.30;;;;;;;;;;5064853;28;20210;-96
2021/01/02 08:56:24;;;;;;;175.57;54.92;;;;;;;;;;5043255;28;20226;-96
2021/01/02 08:58:51;;;;;;;184.32;58.55;;;;;;;;;;5059500;28;20216;-95
2021/01/02 09:01:17;;;;;;;167.65;53.78;;;;;;;;;;5056816;28;20205;-96
2021/01/02 09:03:44;;;;;;;252.90;71.10;;;;;;;;;;5058246;28;20182;-95
2021/01/02 09:09:03;;;;;;;210.18;61.13;;;;;;;;;;5074181;28;20611;-96
2021/01/02 09:11:42;;;;;;;142.20;53.20;;;;;;;;;;5068280;28;20204;-96
2021/01/02 09:14:10;;;;;;;156.27;50.25;;;;;;;;;;5062388;28;20200;-95
2021/01/02 09:16:41;;;;;;;142.23;52.83;;;;;;;;;;5056869;28;20201;-96
2021/01/02 09:19:07;;;;;;;139.95;53.47;;;;;;;;;;5070532;28;20208;-96
2021/01/02 09:24:32;;;;;;;142.98;51.42;;;;;;;;;;5064155;23;20245;-96
2021/01/02 09:26:59;;;;;;;119.45;50.58;;;;;;;;;;5012289;28;20203;-96
2021/01/02 09:32:10;;;;;;;109.25;50.72;;;;;;;;;;5009433;28;20661;-95
2021/01/02 09:34:39;;;;;;;116.53;52.30;;;;;;;;;;5010643;28;20249;-96
2021/01/02 09:37:06;;;;;;;118.70;53.85;;;;;;;;;;5010616;28;20296;-96
2021/01/02 10:09:57;;;;;;;318.73;90.35;;;;;;;;;;5116245;23;20238;-96
2021/01/02 10:12:56;;;;;;;235.77;92.25;;;;;;;;;;5050959;28;20205;-96
2021/01/02 10:35:27;;;;;;;130.02;68.40;;;;;;;;;;4960866;29;20196;-96
2021/01/02 10:51:22;;;;;;;71.75;42.63;;;;;;;;;;5554744;23;20248;-96
2021/01/02 10:53:48;;;;;;;54.40;31.25;;;;;;;;;;5064853;28;20203;-96
2021/01/02 10:56:49;;;;;;;34.65;22.60;;;;;;;;;;5074927;28;20243;-96
2021/01/02 10:59:16;;;;;;;36.10;24.08;;;;;;;;;;5073874;23;20243;-96
2021/01/02 11:01:46;;;;;;;63.15;37.75;;;;;;;;;;5071932;28;20230;-96
2021/01/02 12:57:13;;;;;;;17.53;11.80;;;;;;;;;;5022569;23;20494;-96
2021/01/02 12:59:39;;;;;;;15.80;10.80;;;;;;;;;;5004955;28;20461;-93
2021/01/02 13:02:15;;;;;;;13.43;10.57;;;;;;;;;;5005475;28;20462;-96
2021/01/02 13:04:41;;;;;;;13.33;9.83;;;;;;;;;;5020186;23;20644;-95
2021/01/02 13:07:20;;;;;;;12.40;9.00;;;;;;;;;;5023515;23;20504;-96
2021/01/02 13:09:53;;;;;;;10.83;7.80;;;;;;;;;;5162391;23;20481;-96
2021/01/02 13:12:22;;;;;;;11.60;8.67;;;;;;;;;;5102020;23;20487;-94
2021/01/02 13:20:06;;;;;;;10.80;8.10;;;;;;;;;;5276893;23;21706;-96
2021/01/02 13:26:01;;;;;;;10.10;7.60;;;;;;;;;;5041895;22;20416;-96
2021/01/02 13:37:03;;;;;;;9.50;7.57;;;;;;;;;;4733067;23;20471;-94
2021/01/02 14:13:17;;;;;;;4.07;3.73;;;;;;;;;;5015326;28;20548;-96
2021/01/02 14:32:21;;;;;;;6.30;5.00;;;;;;;;;;5689405;23;21547;-96
2021/01/02 14:53:23;;;;;;;7.37;5.77;;;;;;;;;;5453848;23;20487;-96
2021/01/02 15:06:12;;;;;;;7.40;6.03;;;;;;;;;;5044661;26;20577;-96
2021/01/02 15:08:55;;;;;;;8.77;5.70;;;;;;;;;;5055544;28;20546;-96
2021/01/02 15:22:50;;;;;;;4.00;3.60;;;;;;;;;;5975380;23;20477;31
2021/01/02 15:27:59;;;;;;;9.63;5.17;;;;;;;;;;5007919;23;20508;-96
2021/01/02 15:48:44;;;;;;;5.80;5.00;;;;;;;;;;5356312;23;20502;-96
2021/01/02 15:56:57;;;;;;;12.80;9.07;;;;;;;;;;4992760;28;20521;-96
2021/01/02 15:59:24;;;;;;;11.20;8.03;;;;;;;;;;4989297;28;20468;-96
2021/01/02 16:02:02;;;;;;;17.70;10.10;;;;;;;;;;4992291;28;20469;-96
2021/01/02 16:04:35;;;;;;;11.93;8.20;;;;;;;;;;4980751;28;20472;-96
2021/01/02 16:07:09;;;;;;;11.57;8.20;;;;;;;;;;4982576;28;20450;-96
2021/01/02 16:09:35;;;;;;;11.47;7.20;;;;;;;;;;4979374;28;20521;-94
2021/01/02 16:12:04;;;;;;;48.97;41.77;;;;;;;;;;4976826;28;20458;-96
2021/01/02 16:14:30;;;;;;;14.17;10.23;;;;;;;;;;4959025;29;21185;-95
2021/01/02 16:16:57;;;;;;;13.90;8.30;;;;;;;;;;4980152;28;20582;-96
2021/01/02 16:19:24;;;;;;;16.83;8.33;;;;;;;;;;4982986;28;20454;-96
2021/01/02 16:22:13;;;;;;;16.00;7.80;;;;;;;;;;5018305;23;21984;-96
2021/01/02 16:24:48;;;;;;;10.93;7.43;;;;;;;;;;4973795;28;20468;-96
2021/01/02 16:27:14;;;;;;;15.57;9.70;;;;;;;;;;5011073;28;20455;-96
2021/01/02 16:29:41;;;;;;;9.27;6.10;;;;;;;;;;5007310;28;20484;-96
2021/01/02 16:32:07;;;;;;;9.90;6.50;;;;;;;;;;5009419;28;20496;-96
2021/01/02 16:34:36;;;;;;;8.40;5.83;;;;;;;;;;5005848;28;20544;-96
2021/01/02 16:37:04;;;;;;;8.20;5.27;;;;;;;;;;5006319;28;20463;-96
2021/01/02 16:39:30;;;;;;;13.53;6.07;;;;;;;;;;5002361;28;20476;-96
2021/01/02 16:41:58;;;;;;;6.13;4.57;;;;;;;;;;5005116;28;20456;-96
2021/01/02 16:44:40;;;;;;;5.73;3.83;;;;;;;;;;5009948;28;20460;-96
2021/01/02 16:55:16;;;;;;;6.60;4.63;;;;;;;;;;5073388;23;20488;-96
2021/01/02 17:00:25;;;;;;;4.87;4.30;;;;;;;;;;5232525;23;20528;-96
2021/01/02 17:06:01;;;;;;;11.70;7.67;;;;;;;;;;4992654;28;20462;-96
2021/01/02 17:08:28;;;;;;;14.60;8.43;;;;;;;;;;4991511;28;20446;-96
2021/01/02 17:10:56;;;;;;;17.10;9.67;;;;;;;;;;4978807;28;20620;-96
2021/01/02 17:18:41;;;;;;;13.70;9.40;;;;;;;;;;5128974;23;20488;-96
2021/01/02 17:44:03;;;;;;;28.83;20.73;;;;;;;;;;4908406;23;20498;-96
2021/01/02 17:47:03;;;;;;;40.60;33.10;;;;;;;;;;4979025;28;20448;-96
2021/01/02 17:57:23;;;;;;;48.93;32.53;;;;;;;;;;5175341;23;20506;-95
2021/01/02 18:03:10;;;;;;;44.63;28.67;;;;;;;;;;5055531;28;20462;-94
2021/01/02 18:05:36;;;;;;;25.45;19.00;;;;;;;;;;5046157;28;21500;-94
2021/01/02 18:08:02;;;;;;;30.27;21.90;;;;;;;;;;5028448;28;20655;-93
2021/01/02 18:10:28;;;;;;;27.97;17.97;;;;;;;;;;5034387;28;20536;-93
2021/01/02 18:12:55;;;;;;;49.35;31.00;;;;;;;;;;5036983;28;20461;-96
2021/01/02 18:15:23;;;;;;;44.38;32.15;;;;;;;;;;5053928;28;20584;-96
2021/01/02 18:17:49;;;;;;;40.78;26.80;;;;;;;;;;5046159;28;20252;-93
2021/01/02 18:20:17;;;;;;;25.57;18.30;;;;;;;;;;5033984;28;20223;-95
2021/01/02 18:22:43;;;;;;;37.30;26.37;;;;;;;;;;5042491;28;20458;-95
2021/01/02 18:25:09;;;;;;;41.23;28.50;;;;;;;;;;5042009;28;20464;-95
2021/01/02 18:27:35;;;;;;;11.25;8.38;;;;;;;;;;5044677;28;20451;-93
2021/01/02 18:30:03;;;;;;;6.23;5.53;;;;;;;;;;5033616;28;20316;-96
2021/01/02 18:32:30;;;;;;;5.40;4.40;;;;;;;;;;5040226;28;20452;-94
2021/01/02 18:34:56;;;;;;;5.32;4.60;;;;;;;;;;5041480;28;20453;-96
2021/01/02 18:37:22;;;;;;;5.55;4.10;;;;;;;;;;5042407;28;20211;-91
2021/01/02 18:39:48;;;;;;;5.60;5.00;;;;;;;;;;5034511;28;20222;-90
2021/01/02 18:42:14;;;;;;;5.43;4.83;;;;;;;;;;5042212;28;20459;-91
2021/01/02 18:44:40;;;;;;;5.00;3.97;;;;;;;;;;5038231;28;20461;-95
2021/01/02 18:47:07;;;;;;;51.60;31.67;;;;;;;;;;5021668;28;20991;-94
2021/01/02 18:49:34;;;;;;;47.73;33.80;;;;;;;;;;5035831;28;20501;-94
2021/01/02 18:52:01;;;;;;;38.13;26.03;;;;;;;;;;5037311;28;20454;-96
2021/01/02 18:54:27;;;;;;;33.77;24.70;;;;;;;;;;5039294;28;20448;-94
2021/01/02 18:56:54;;;;;;;28.13;21.08;;;;;;;;;;5031737;28;20494;-96
2021/01/02 18:59:20;;;;;;;29.95;21.55;;;;;;;;;;5049571;28;20217;-96
2021/01/02 19:01:47;;;;;;;30.83;20.70;;;;;;;;;;5055730;28;20284;-95
2021/01/02 19:04:15;;;;;;;31.33;20.67;;;;;;;;;;5061292;28;20461;-96
2021/01/02 19:06:41;;;;;;;26.98;20.25;;;;;;;;;;5061261;28;20218;-96
2021/01/02 19:09:08;;;;;;;32.80;19.93;;;;;;;;;;5054962;28;20238;-95
2021/01/02 19:11:34;;;;;;;23.85;17.60;;;;;;;;;;5052414;28;20454;-96
2021/01/02 19:14:00;;;;;;;22.85;16.92;;;;;;;;;;5049729;28;20210;-93
2021/01/02 19:16:27;;;;;;;24.70;17.88;;;;;;;;;;5053011;28;20226;-95
2021/01/02 19:18:54;;;;;;;23.85;17.13;;;;;;;;;;5058002;28;20221;-93
2021/01/02 19:21:20;;;;;;;30.35;19.38;;;;;;;;;;5060944;28;20203;-95
2021/01/02 19:23:47;;;;;;;28.70;19.45;;;;;;;;;;5057576;28;21027;-92
2021/01/02 19:26:22;;;;;;;30.45;21.80;;;;;;;;;;5061298;28;20197;-95
2021/01/02 19:28:49;;;;;;;33.58;19.70;;;;;;;;;;5062232;28;20226;-93
2021/01/02 19:31:22;;;;;;;29.83;20.73;;;;;;;;;;5064514;28;20202;-96
2021/01/02 19:33:48;;;;;;;29.15;19.83;;;;;;;;;;5066910;28;20279;-96
2021/01/02 19:36:14;;;;;;;29.23;18.38;;;;;;;;;;5060267;28;20202;-96
2021/01/02 19:38:41;;;;;;;26.77;19.55;;;;;;;;;;5060736;28;20203;-96
2021/01/02 19:41:07;;;;;;;32.00;21.20;;;;;;;;;;5055363;28;20226;-96
2021/01/02 19:43:34;;;;;;;29.15;20.50;;;;;;;;;;5051705;28;20284;-96
2021/01/02 19:46:00;;;;;;;35.25;24.80;;;;;;;;;;5062892;28;20277;-96
2021/01/02 19:48:26;;;;;;;36.20;26.83;;;;;;;;;;5060142;28;20261;-96
2021/01/02 19:50:52;;;;;;;49.67;31.10;;;;;;;;;;5060191;28;20213;-96
2021/01/02 19:53:18;;;;;;;47.63;31.85;;;;;;;;;;5055630;28;20203;-96
2021/01/02 19:55:45;;;;;;;41.72;29.60;;;;;;;;;;5054615;28;20224;-96
2021/01/02 19:58:11;;;;;;;47.70;30.88;;;;;;;;;;5040032;28;20236;-96
2021/01/02 20:00:37;;;;;;;33.95;23.65;;;;;;;;;;5024016;28;20214;-96
2021/01/02 20:03:03;;;;;;;33.58;22.85;;;;;;;;;;5035956;28;20194;-95
2021/01/02 20:05:30;;;;;;;33.65;23.02;;;;;;;;;;5047579;28;20203;-95
2021/01/02 20:07:56;;;;;;;36.10;22.63;;;;;;;;;;5044477;28;20210;-96
2021/01/02 20:10:23;;;;;;;32.35;23.05;;;;;;;;;;5058998;28;20233;-96
2021/01/02 20:12:51;;;;;;;35.05;22.80;;;;;;;;;;5038243;28;20220;-96
2021/01/02 20:15:17;;;;;;;30.55;22.55;;;;;;;;;;5041173;28;20229;-95
2021/01/02 20:17:43;;;;;;;33.58;23.25;;;;;;;;;;5039957;28;20224;-95
2021/01/02 20:20:10;;;;;;;39.33;25.20;;;;;;;;;;5036369;28;20210;-96
2021/01/02 20:22:36;;;;;;;37.65;23.35;;;;;;;;;;5040741;28;20271;-96
2021/01/02 20:25:02;;;;;;;36.45;24.92;;;;;;;;;;5028575;28;20214;-96
2021/01/02 20:27:28;;;;;;;38.00;24.63;;;;;;;;;;5040443;28;20200;-93
2021/01/02 20:29:55;;;;;;;38.40;22.90;;;;;;;;;;5035821;28;20222;-93
2021/01/02 20:32:21;;;;;;;44.80;31.25;;;;;;;;;;5042275;28;20197;-94
2021/01/02 20:34:48;;;;;;;40.08;24.95;;;;;;;;;;5040930;28;20218;-93
2021/01/02 20:37:16;;;;;;;38.72;26.05;;;;;;;;;;5045264;28;20234;-95
2021/01/02 20:39:42;;;;;;;44.40;27.65;;;;;;;;;;5043317;28;20222;-96
2021/01/02 20:42:13;;;;;;;39.22;26.35;;;;;;;;;;5035531;28;20298;-95
2021/01/02 20:44:40;;;;;;;42.92;25.25;;;;;;;;;;5042119;28;20202;-96
2021/01/02 20:47:07;;;;;;;42.88;27.50;;;;;;;;;;5030197;28;20281;-96
2021/01/02 20:49:34;;;;;;;38.35;25.75;;;;;;;;;;5030080;28;20229;-95
2021/01/02 20:52:00;;;;;;;29.40;22.02;;;;;;;;;;5040053;28;20213;-95
2021/01/02 20:54:27;;;;;;;38.03;23.45;;;;;;;;;;5044928;28;20241;-96
2021/01/02 20:56:53;;;;;;;41.65;27.08;;;;;;;;;;5034348;28;20243;-95
2021/01/02 20:59:21;;;;;;;52.28;32.30;;;;;;;;;;5063481;28;20207;-96
2021/01/02 21:01:48;;;;;;;39.55;24.10;;;;;;;;;;5065515;28;20209;-96
2021/01/02 21:04:16;;;;;;;34.70;24.35;;;;;;;;;;5066376;28;20206;-96
2021/01/02 21:06:43;;;;;;;37.42;25.45;;;;;;;;;;5053982;28;20210;-96
2021/01/02 21:09:09;;;;;;;35.03;23.17;;;;;;;;;;5066963;28;20223;-96
2021/01/02 21:11:40;;;;;;;34.58;23.77;;;;;;;;;;5063248;28;20395;-96
2021/01/02 21:14:07;;;;;;;38.10;20.35;;;;;;;;;;5061230;28;20317;-96
2021/01/02 21:16:36;;;;;;;25.38;17.83;;;;;;;;;;5064050;28;20271;-96
2021/01/02 21:19:04;;;;;;;17.67;12.65;;;;;;;;;;5063373;28;20205;-93
2021/01/02 21:21:38;;;;;;;8.80;6.40;;;;;;;;;;5064138;28;20256;-96
2021/01/02 21:24:04;;;;;;;14.10;10.50;;;;;;;;;;5065489;28;20220;-96
2021/01/02 21:26:35;;;;;;;16.45;11.65;;;;;;;;;;5062343;28;20216;-96
2021/01/02 21:29:01;;;;;;;44.67;25.67;;;;;;;;;;5066582;28;20222;-95
2021/01/02 21:31:34;;;;;;;57.95;36.50;;;;;;;;;;5065097;28;20205;-95
2021/01/02 21:34:01;;;;;;;58.63;33.55;;;;;;;;;;5062639;28;20245;-96
2021/01/02 21:36:27;;;;;;;49.90;33.00;;;;;;;;;;5052848;28;20206;-95
2021/01/02 21:38:54;;;;;;;45.70;29.58;;;;;;;;;;5062969;28;20492;-96
2021/01/02 21:41:24;;;;;;;45.15;30.98;;;;;;;;;;5061235;28;20211;-94
2021/01/02 21:43:51;;;;;;;43.33;30.58;;;;;;;;;;5063326;28;20206;-96
2021/01/02 21:46:24;;;;;;;49.80;32.63;;;;;;;;;;5061432;28;20209;-96
2021/01/02 21:48:50;;;;;;;53.75;34.83;;;;;;;;;;5064574;28;20199;-96
2021/01/02 21:51:23;;;;;;;90.30;58.60;;;;;;;;;;5052210;28;20196;-96
2021/01/02 21:53:54;;;;;;;98.53;64.90;;;;;;;;;;5056487;28;20564;-96
2021/01/02 21:56:24;;;;;;;99.57;65.15;;;;;;;;;;5057607;28;20197;-96
2021/01/02 21:58:51;;;;;;;105.30;65.57;;;;;;;;;;5038420;28;20244;-96
2021/01/02 22:01:17;;;;;;;101.43;64.45;;;;;;;;;;5048973;28;20267;-96
2021/01/02 22:03:43;;;;;;;70.82;48.60;;;;;;;;;;5045070;28;20209;-96
2021/01/02 22:06:15;;;;;;;66.50;40.80;;;;;;;;;;5046938;28;20214;-96
2021/01/02 22:08:41;;;;;;;65.53;41.10;;;;;;;;;;5041102;28;21735;-94
2021/01/02 22:14:09;;;;;;;74.40;43.78;;;;;;;;;;5326468;23;20225;-96
2021/01/02 22:16:37;;;;;;;73.05;46.40;;;;;;;;;;5017875;28;20198;-96
2021/01/02 22:22:00;;;;;;;71.78;42.45;;;;;;;;;;5182938;23;20261;-96
2021/01/02 22:24:37;;;;;;;65.32;41.35;;;;;;;;;;5067009;28;20209;-96
2021/01/02 22:30:13;;;;;;;74.20;42.10;;;;;;;;;;4995874;28;20698;-96
2021/01/02 22:32:41;;;;;;;60.40;40.55;;;;;;;;;;4983866;28;20209;-94
2021/01/02 22:35:08;;;;;;;60.10;39.53;;;;;;;;;;5049663;28;20244;-96
2021/01/02 22:37:37;;;;;;;61.65;39.92;;;;;;;;;;5054537;28;20222;-96
2021/01/02 22:40:04;;;;;;;65.53;41.22;;;;;;;;;;5047595;28;20221;-95
2021/01/02 22:48:46;;;;;;;72.30;41.35;;;;;;;;;;4942312;28;20226;-96
2021/01/02 22:51:16;;;;;;;63.42;39.83;;;;;;;;;;4965846;28;20201;-96
2021/01/02 22:56:24;;;;;;;71.70;43.72;;;;;;;;;;4984630;28;20226;-96
2021/01/02 23:01:55;;;;;;;65.53;41.78;;;;;;;;;;4985004;28;20244;-94
2021/01/02 23:04:24;;;;;;;56.83;36.70;;;;;;;;;;5056813;28;20212;-96
2021/01/02 23:07:12;;;;;;;61.72;36.72;;;;;;;;;;5117790;23;20575;-96
2021/01/02 23:09:42;;;;;;;55.00;35.10;;;;;;;;;;4986226;28;20245;-96
2021/01/02 23:20:36;;;;;;;37.30;25.33;;;;;;;;;;4991064;28;20236;-96
2021/01/02 23:28:10;;;;;;;39.63;25.85;;;;;;;;;;5046574;28;20230;-96
2021/01/02 23:42:21;;;;;;;36.80;23.80;;;;;;;;;;5616065;23;20650;-96
2021/01/02 23:44:47;;;;;;;33.40;21.10;;;;;;;;;;5018239;28;20826;-96
2021/01/02 23:50:31;;;;;;;33.75;21.10;;;;;;;;;;5250883;23;20250;-96
2021/01/02 23:58:21;;;;;;;30.10;22.10;;;;;;;;;;5243236;23;20227;-96
